createdAt,value
2023-06-25T00:00:27.561Z,13.18
2023-06-25T00:02:55.250Z,13.05
2023-06-25T00:05:22.553Z,12.95
2023-06-25T00:07:49.437Z,14.52
2023-06-25T00:10:16.222Z,15.40
2023-06-25T00:12:53.697Z,15.90
2023-06-25T00:15:20.960Z,13.30
2023-06-25T00:17:49.287Z,14.82
2023-06-25T00:20:19.674Z,13.20
2023-06-25T00:23:04.969Z,14.70
2023-06-25T00:25:32.988Z,15.02
2023-06-25T00:28:09.692Z,17.42
2023-06-25T00:30:39.021Z,14.90
2023-06-25T00:33:06.724Z,17.13
2023-06-25T00:35:52.711Z,16.70
2023-06-25T00:38:19.700Z,22.02
2023-06-25T00:40:46.955Z,16.38
2023-06-25T00:43:16.719Z,20.00
2023-06-25T00:45:44.646Z,23.23
2023-06-25T00:48:12.630Z,17.55
2023-06-25T00:50:40.955Z,19.42
2023-06-25T00:53:10.255Z,18.80
2023-06-25T00:55:38.209Z,19.90
2023-06-25T00:58:09.174Z,21.92
2023-06-25T01:00:36.588Z,25.30
2023-06-25T01:03:09.445Z,20.38
2023-06-25T01:05:54.533Z,19.10
2023-06-25T01:08:31.006Z,16.95
2023-06-25T01:10:58.651Z,16.02
2023-06-25T01:13:27.819Z,16.55
2023-06-25T01:15:54.583Z,12.95
2023-06-25T01:18:24.638Z,17.48
2023-06-25T01:20:54.865Z,16.83
2023-06-25T01:23:23.127Z,17.52
2023-06-25T01:25:51.528Z,17.40
2023-06-25T01:28:21.693Z,15.80
2023-06-25T01:30:53.665Z,14.13
2023-06-25T01:33:22.645Z,13.82
2023-06-25T01:35:49.392Z,14.70
2023-06-25T01:38:16.460Z,15.18
2023-06-25T01:40:44.426Z,14.70
2023-06-25T01:43:12.434Z,17.23
2023-06-25T01:45:39.840Z,15.32
2023-06-25T01:48:07.295Z,13.82
2023-06-25T01:50:35.499Z,15.25
2023-06-25T01:53:02.450Z,15.52
2023-06-25T01:55:29.435Z,13.95
2023-06-25T01:57:57.385Z,13.13
2023-06-25T02:00:24.475Z,12.65
2023-06-25T02:02:51.457Z,16.85
2023-06-25T02:05:18.209Z,14.88
2023-06-25T02:07:45.603Z,14.70
2023-06-25T02:10:16.157Z,14.90
2023-06-25T02:12:43.803Z,15.57
2023-06-25T02:15:11.533Z,13.30
2023-06-25T02:17:38.414Z,16.73
2023-06-25T02:20:06.594Z,14.52
2023-06-25T02:22:33.754Z,13.75
2023-06-25T02:25:01.746Z,15.30
2023-06-25T02:27:28.739Z,14.45
2023-06-25T02:29:57.071Z,14.95
2023-06-25T02:32:24.013Z,14.20
2023-06-25T02:34:51.237Z,13.43
2023-06-25T02:37:18.914Z,12.35
2023-06-25T02:39:47.521Z,13.75
2023-06-25T02:42:14.332Z,14.27
2023-06-25T02:44:43.395Z,11.55
2023-06-25T02:47:14.007Z,13.20
2023-06-25T02:49:40.831Z,14.88
2023-06-25T02:52:10.759Z,11.38
2023-06-25T02:54:37.490Z,12.70
2023-06-25T02:57:04.411Z,11.98
2023-06-25T02:59:31.108Z,11.80
2023-06-25T03:01:58.187Z,11.40
2023-06-25T03:04:25.696Z,13.68
2023-06-25T03:06:52.634Z,15.15
2023-06-25T03:09:20.225Z,10.57
2023-06-25T03:11:48.031Z,12.30
2023-06-25T03:14:30.027Z,10.68
2023-06-25T03:17:02.604Z,9.57
2023-06-25T03:19:29.482Z,14.20
2023-06-25T03:21:56.722Z,9.35
2023-06-25T03:24:23.737Z,10.45
2023-06-25T03:26:50.918Z,9.38
2023-06-25T03:29:18.937Z,10.10
2023-06-25T03:31:46.937Z,9.65
2023-06-25T03:34:14.046Z,11.25
2023-06-25T03:36:40.957Z,10.95
2023-06-25T03:39:07.964Z,13.73
2023-06-25T03:41:35.605Z,10.10
2023-06-25T03:44:02.723Z,11.07
2023-06-25T03:46:29.739Z,12.90
2023-06-25T03:48:56.835Z,13.32
2023-06-25T03:51:25.356Z,16.73
2023-06-25T03:53:52.273Z,13.25
2023-06-25T03:56:19.282Z,18.35
2023-06-25T03:58:46.199Z,14.38
2023-06-25T04:01:14.521Z,11.95
2023-06-25T04:03:41.358Z,12.98
2023-06-25T04:06:08.233Z,13.55
2023-06-25T04:08:35.064Z,15.57
2023-06-25T04:11:01.816Z,19.90
2023-06-25T04:13:28.904Z,14.80
2023-06-25T04:15:56.041Z,15.52
2023-06-25T04:18:27.042Z,15.68
2023-06-25T04:20:54.517Z,16.10
2023-06-25T04:23:21.830Z,13.68
2023-06-25T04:25:49.495Z,14.27
2023-06-25T04:28:17.185Z,12.43
2023-06-25T04:30:44.482Z,13.20
2023-06-25T04:33:11.642Z,13.35
2023-06-25T04:35:38.775Z,13.25
2023-06-25T04:38:08.136Z,12.88
2023-06-25T04:40:45.103Z,11.63
2023-06-25T04:43:17.912Z,11.00
2023-06-25T04:45:52.858Z,10.77
2023-06-25T04:48:19.937Z,12.30
2023-06-25T04:50:47.547Z,11.63
2023-06-25T04:53:15.206Z,11.82
2023-06-25T04:55:42.444Z,10.75
2023-06-25T04:58:09.774Z,10.45
2023-06-25T05:00:40.788Z,12.35
2023-06-25T05:03:08.724Z,12.90
2023-06-25T05:05:35.955Z,11.18
2023-06-25T05:08:03.503Z,12.10
2023-06-25T05:10:31.130Z,13.00
2023-06-25T05:12:58.883Z,11.90
2023-06-25T05:15:25.786Z,11.35
2023-06-25T05:17:52.583Z,12.18
2023-06-25T05:20:20.702Z,13.43
2023-06-25T05:22:48.107Z,13.45
2023-06-25T05:25:15.497Z,12.68
2023-06-25T05:27:42.357Z,12.18
2023-06-25T05:30:10.948Z,14.10
2023-06-25T05:32:37.850Z,12.07
2023-06-25T05:35:05.451Z,13.98
2023-06-25T05:37:32.400Z,13.13
2023-06-25T05:40:00.030Z,14.27
2023-06-25T05:42:26.867Z,13.90
2023-06-25T05:44:54.361Z,17.67
2023-06-25T05:47:21.910Z,16.95
2023-06-25T05:50:13.818Z,20.50
2023-06-25T05:52:43.412Z,16.15
2023-06-25T05:55:10.674Z,16.65
2023-06-25T05:57:40.115Z,17.50
2023-06-25T06:00:12.400Z,16.77
2023-06-25T06:03:10.491Z,13.27
2023-06-25T06:05:38.917Z,13.07
2023-06-25T06:08:06.139Z,12.88
2023-06-25T06:10:36.375Z,13.98
2023-06-25T06:16:42.674Z,12.40
2023-06-25T06:19:15.612Z,13.20
2023-06-25T06:21:42.405Z,12.57
2023-06-25T06:24:10.445Z,14.13
2023-06-25T06:26:37.286Z,12.60
2023-06-25T06:29:05.808Z,13.68
2023-06-25T06:31:33.807Z,13.27
2023-06-25T06:34:01.122Z,12.45
2023-06-25T06:36:28.234Z,11.90
2023-06-25T06:38:55.533Z,19.75
2023-06-25T06:41:22.625Z,11.82
2023-06-25T06:43:49.493Z,10.80
2023-06-25T06:46:17.047Z,11.70
2023-06-25T06:48:44.655Z,12.48
2023-06-25T06:51:11.705Z,8.98
2023-06-25T06:53:38.580Z,11.40
2023-06-25T06:56:07.315Z,11.75
2023-06-25T06:58:34.212Z,11.95
2023-06-25T07:01:01.111Z,12.82
2023-06-25T07:03:30.810Z,13.57
2023-06-25T07:05:57.642Z,13.45
2023-06-25T07:08:24.503Z,12.88
2023-06-25T07:10:51.518Z,15.65
2023-06-25T07:13:19.311Z,14.60
2023-06-25T07:15:46.215Z,11.88
2023-06-25T07:18:13.451Z,11.32
2023-06-25T07:20:43.426Z,12.30
2023-06-25T07:23:30.570Z,12.07
2023-06-25T07:25:57.593Z,12.10
2023-06-25T07:28:24.946Z,11.50
2023-06-25T07:30:53.165Z,12.68
2023-06-25T07:33:20.359Z,11.93
2023-06-25T07:35:47.341Z,9.35
2023-06-25T07:38:15.828Z,11.25
2023-06-25T07:40:43.777Z,9.93
2023-06-25T07:43:11.634Z,10.85
2023-06-25T07:45:40.861Z,8.15
2023-06-25T07:48:08.299Z,10.23
2023-06-25T07:50:37.203Z,9.30
2023-06-25T07:53:04.033Z,11.05
2023-06-25T07:55:31.353Z,9.00
2023-06-25T07:57:58.225Z,9.00
2023-06-25T08:00:25.843Z,10.73
2023-06-25T08:02:53.161Z,10.30
2023-06-25T08:05:21.320Z,11.68
2023-06-25T08:07:48.633Z,12.95
2023-06-25T08:10:16.814Z,10.23
2023-06-25T08:12:44.030Z,11.65
2023-06-25T08:15:11.602Z,8.57
2023-06-25T08:17:39.316Z,9.80
2023-06-25T08:20:07.158Z,8.70
2023-06-25T08:22:34.596Z,9.93
2023-06-25T08:25:01.625Z,10.13
2023-06-25T08:27:29.056Z,10.80
2023-06-25T08:29:56.064Z,9.55
2023-06-25T08:32:22.970Z,10.40
2023-06-25T08:34:50.415Z,10.50
2023-06-25T08:37:18.800Z,9.15
2023-06-25T08:39:46.528Z,7.97
2023-06-25T08:42:14.036Z,9.68
2023-06-25T08:44:42.367Z,9.52
2023-06-25T08:47:10.649Z,9.70
2023-06-25T08:49:39.506Z,9.68
2023-06-25T08:52:07.571Z,9.38
2023-06-25T08:54:34.816Z,8.57
2023-06-25T08:57:03.998Z,8.30
2023-06-25T08:59:31.526Z,8.82
2023-06-25T09:01:58.475Z,9.50
2023-06-25T09:04:25.849Z,10.43
2023-06-25T09:07:03.283Z,8.32
2023-06-25T09:09:31.621Z,12.32
2023-06-25T09:11:58.420Z,11.90
2023-06-25T09:14:25.713Z,9.68
2023-06-25T09:16:57.230Z,11.00
2023-06-25T09:19:26.824Z,10.02
2023-06-25T09:22:03.348Z,10.32
2023-06-25T09:24:31.276Z,11.75
2023-06-25T09:26:58.580Z,9.52
2023-06-25T09:29:26.589Z,9.20
2023-06-25T09:31:53.517Z,9.20
2023-06-25T09:34:20.951Z,9.32
2023-06-25T09:36:48.512Z,10.70
2023-06-25T09:39:15.754Z,9.70
2023-06-25T09:41:44.707Z,10.90
2023-06-25T09:44:12.543Z,10.30
2023-06-25T09:46:41.702Z,8.18
2023-06-25T09:49:08.923Z,8.73
2023-06-25T09:51:42.637Z,9.02
2023-06-25T09:54:12.723Z,10.50
2023-06-25T09:56:42.475Z,8.65
2023-06-25T09:59:10.072Z,9.05
2023-06-25T10:01:38.877Z,8.23
2023-06-25T10:04:08.584Z,10.68
2023-06-25T10:06:36.712Z,9.45
2023-06-25T10:09:06.149Z,9.65
2023-06-25T10:11:38.045Z,10.25
2023-06-25T10:14:09.770Z,11.57
2023-06-25T10:16:39.976Z,11.82
2023-06-25T10:19:10.729Z,9.35
2023-06-25T10:21:38.281Z,11.00
2023-06-25T10:24:05.683Z,10.02
2023-06-25T10:26:35.979Z,14.43
2023-06-25T10:29:10.033Z,11.75
2023-06-25T10:31:42.979Z,10.30
2023-06-25T10:34:12.157Z,10.85
2023-06-25T10:36:50.418Z,10.93
2023-06-25T10:39:17.674Z,11.70
2023-06-25T10:41:48.950Z,13.23
2023-06-25T10:44:16.533Z,10.52
2023-06-25T10:46:48.472Z,11.48
2023-06-25T10:49:25.801Z,11.60
2023-06-25T10:51:56.976Z,16.35
2023-06-25T10:54:24.866Z,18.52
2023-06-25T10:57:05.777Z,14.48
2023-06-25T10:59:32.916Z,20.30
2023-06-25T11:02:22.712Z,17.27
2023-06-25T11:05:00.075Z,20.10
2023-06-25T11:07:28.567Z,17.13
2023-06-25T11:09:59.886Z,18.38
2023-06-25T11:12:28.626Z,18.58
2023-06-25T11:14:59.929Z,16.58
2023-06-25T11:17:28.009Z,17.05
2023-06-25T11:19:57.917Z,22.17
2023-06-25T11:22:25.110Z,16.27
2023-06-25T11:24:52.591Z,20.05
2023-06-25T11:27:27.213Z,17.70
2023-06-25T11:29:58.153Z,16.45
2023-06-25T11:32:27.872Z,15.65
2023-06-25T11:34:57.264Z,18.45
2023-06-25T11:37:24.714Z,18.00
2023-06-25T11:39:58.597Z,18.52
2023-06-25T11:42:26.303Z,17.33
2023-06-25T11:45:04.755Z,18.02
2023-06-25T11:47:32.514Z,18.10
2023-06-25T11:50:02.044Z,19.08
2023-06-25T11:52:30.659Z,19.10
2023-06-25T11:54:57.952Z,17.02
2023-06-25T11:57:24.939Z,15.00
2023-06-25T11:59:52.864Z,15.60
2023-06-25T12:02:19.785Z,17.10
2023-06-25T12:04:47.020Z,16.80
2023-06-25T12:07:14.958Z,15.93
2023-06-25T12:09:43.762Z,21.17
2023-06-25T12:12:11.313Z,18.35
2023-06-25T12:14:38.476Z,17.83
2023-06-25T12:17:10.145Z,21.73
2023-06-25T12:19:44.424Z,15.98
2023-06-25T12:22:11.909Z,15.57
2023-06-25T12:24:39.499Z,15.77
2023-06-25T12:27:16.991Z,17.50
2023-06-25T12:29:43.914Z,17.75
2023-06-25T12:32:11.311Z,17.17
2023-06-25T12:34:38.185Z,18.05
2023-06-25T12:37:06.151Z,16.20
2023-06-25T12:39:35.780Z,16.88
2023-06-25T12:42:04.323Z,18.90
2023-06-25T12:44:31.235Z,15.60
2023-06-25T12:46:58.512Z,13.77
2023-06-25T12:49:25.684Z,14.13
2023-06-25T12:51:54.336Z,13.30
2023-06-25T12:54:21.569Z,15.00
2023-06-25T12:56:48.567Z,13.52
2023-06-25T12:59:16.144Z,12.13
2023-06-25T13:01:43.269Z,11.52
2023-06-25T13:04:11.125Z,13.02
2023-06-25T13:06:39.245Z,14.88
2023-06-25T13:09:06.960Z,14.65
2023-06-25T13:11:35.862Z,12.43
2023-06-25T13:14:03.371Z,13.48
2023-06-25T13:16:30.374Z,10.43
2023-06-25T13:18:57.410Z,10.50
2023-06-25T13:21:24.483Z,14.30
2023-06-25T13:23:51.437Z,11.43
2023-06-25T13:26:29.308Z,10.80
2023-06-25T13:28:56.296Z,10.75
2023-06-25T13:31:32.251Z,11.45
2023-06-25T13:33:59.583Z,10.48
2023-06-25T13:36:26.513Z,13.45
2023-06-25T13:38:54.523Z,14.77
2023-06-25T13:41:21.938Z,11.98
2023-06-25T13:43:49.105Z,12.15
2023-06-25T13:46:16.746Z,14.18
2023-06-25T13:48:44.581Z,11.13
2023-06-25T13:51:11.581Z,11.85
2023-06-25T13:53:40.271Z,13.77
2023-06-25T13:56:09.891Z,11.82
2023-06-25T13:58:39.873Z,11.40
2023-06-25T14:01:07.256Z,11.57
2023-06-25T14:06:36.216Z,10.32
2023-06-25T14:09:05.859Z,9.95
2023-06-25T14:11:33.167Z,11.50
2023-06-25T14:14:00.037Z,10.20
2023-06-25T14:16:35.607Z,12.00
2023-06-25T14:19:02.997Z,11.18
2023-06-25T14:21:32.102Z,12.20
2023-06-25T14:23:59.154Z,10.80
2023-06-25T14:26:26.948Z,12.43
2023-06-25T14:29:06.632Z,12.95
2023-06-25T14:31:37.072Z,11.88
2023-06-25T14:34:04.085Z,11.23
2023-06-25T14:36:31.351Z,11.30
2023-06-25T14:38:59.557Z,9.77
2023-06-25T14:41:28.078Z,12.10
2023-06-25T14:43:55.550Z,13.93
2023-06-25T14:46:22.435Z,10.60
2023-06-25T14:48:49.920Z,11.40
2023-06-25T14:51:21.064Z,11.90
2023-06-25T14:53:49.025Z,11.23
2023-06-25T14:56:17.320Z,11.48
2023-06-25T14:58:46.786Z,13.02
2023-06-25T15:01:13.669Z,13.13
2023-06-25T15:03:41.738Z,11.95
2023-06-25T15:06:15.483Z,11.85
2023-06-25T15:08:51.832Z,11.10
2023-06-25T15:11:20.370Z,11.27
2023-06-25T15:13:47.225Z,14.07
2023-06-25T15:16:18.568Z,13.48
2023-06-25T15:18:45.419Z,11.23
2023-06-25T15:21:12.609Z,12.55
2023-06-25T15:23:39.537Z,16.48
2023-06-25T15:26:09.583Z,13.65
2023-06-25T15:28:36.625Z,13.68
2023-06-25T15:31:03.952Z,14.00
2023-06-25T15:33:32.740Z,13.57
2023-06-25T15:36:01.545Z,14.07
2023-06-25T15:38:28.475Z,11.63
2023-06-25T15:40:57.464Z,13.15
2023-06-25T15:43:27.396Z,18.05
2023-06-25T15:45:55.312Z,14.85
2023-06-25T15:48:22.618Z,14.40
2023-06-25T15:50:50.449Z,14.13
2023-06-25T15:53:17.510Z,13.27
2023-06-25T15:55:45.528Z,12.98
2023-06-25T15:58:15.171Z,13.45
2023-06-25T16:00:43.217Z,14.05
2023-06-25T16:03:11.153Z,15.10
2023-06-25T16:05:38.843Z,14.20
2023-06-25T16:08:08.551Z,18.20
2023-06-25T16:10:37.758Z,18.35
2023-06-25T16:13:05.425Z,15.60
2023-06-25T16:15:35.864Z,17.63
2023-06-25T16:18:04.131Z,11.52
2023-06-25T16:20:31.814Z,15.65
2023-06-25T16:22:58.872Z,13.88
2023-06-25T16:25:27.237Z,16.83
2023-06-25T16:27:54.325Z,16.42
2023-06-25T16:30:21.430Z,15.48
2023-06-25T16:32:48.742Z,15.10
2023-06-25T16:35:15.939Z,15.77
2023-06-25T16:37:43.123Z,14.70
2023-06-25T16:40:12.998Z,16.63
2023-06-25T16:42:40.673Z,14.77
2023-06-25T16:45:07.822Z,16.27
2023-06-25T16:47:35.669Z,18.35
2023-06-25T16:50:09.455Z,14.45
2023-06-25T16:52:37.273Z,14.90
2023-06-25T16:55:07.768Z,18.48
2023-06-25T16:57:37.499Z,17.92
2023-06-25T17:00:06.977Z,15.23
2023-06-25T17:02:34.097Z,19.38
2023-06-25T17:05:01.180Z,17.85
2023-06-25T17:07:31.465Z,16.70
2023-06-25T17:09:59.358Z,14.63
2023-06-25T17:12:26.105Z,15.75
2023-06-25T17:14:59.618Z,17.50
2023-06-25T17:17:26.928Z,19.20
2023-06-25T17:19:54.524Z,18.95
2023-06-25T17:22:21.257Z,15.18
2023-06-25T17:24:48.148Z,11.07
2023-06-25T17:27:15.885Z,14.25
2023-06-25T17:29:43.086Z,12.43
2023-06-25T17:32:11.657Z,17.20
2023-06-25T17:34:43.272Z,13.75
2023-06-25T17:37:10.833Z,14.38
2023-06-25T17:39:37.667Z,14.35
2023-06-25T17:42:07.568Z,15.00
2023-06-25T17:44:36.917Z,15.98
2023-06-25T17:47:04.305Z,14.55
2023-06-25T17:49:32.450Z,13.95
2023-06-25T17:51:59.707Z,16.17
2023-06-25T17:54:26.466Z,13.05
2023-06-25T17:56:56.804Z,14.32
2023-06-25T17:59:27.663Z,24.63
2023-06-25T18:01:55.882Z,14.93
2023-06-25T18:04:22.674Z,15.27
2023-06-25T18:06:50.382Z,17.20
2023-06-25T18:09:18.142Z,13.70
2023-06-25T18:11:45.023Z,15.38
2023-06-25T18:14:15.222Z,17.45
2023-06-25T18:16:42.390Z,14.82
2023-06-25T18:19:09.096Z,15.68
2023-06-25T18:21:35.973Z,17.63
2023-06-25T18:24:03.027Z,17.27
2023-06-25T18:26:29.975Z,14.55
2023-06-25T18:28:57.550Z,13.98
2023-06-25T18:31:24.548Z,13.32
2023-06-25T18:33:54.453Z,16.90
2023-06-25T18:36:21.298Z,14.13
2023-06-25T18:38:48.212Z,16.90
2023-06-25T18:41:15.116Z,13.70
2023-06-25T18:43:41.878Z,12.20
2023-06-25T18:46:15.044Z,13.40
2023-06-25T18:48:42.470Z,14.38
2023-06-25T18:51:09.414Z,16.92
2023-06-25T18:53:36.566Z,13.27
2023-06-25T18:56:03.860Z,14.27
2023-06-25T18:58:30.947Z,14.95
2023-06-25T19:00:57.807Z,14.45
2023-06-25T19:03:26.876Z,16.27
2023-06-25T19:05:53.947Z,14.25
2023-06-25T19:08:20.773Z,12.90
2023-06-25T19:10:47.488Z,12.13
2023-06-25T19:13:14.173Z,15.55
2023-06-25T19:15:41.946Z,11.63
2023-06-25T19:18:08.892Z,14.70
2023-06-25T19:20:36.738Z,12.95
2023-06-25T19:23:27.748Z,15.68
2023-06-25T19:25:53.016Z,17.77
2023-06-25T19:28:20.075Z,13.63
2023-06-25T19:30:47.073Z,13.63
2023-06-25T19:33:13.885Z,16.23
2023-06-25T19:35:41.092Z,14.02
2023-06-25T19:38:08.186Z,13.30
2023-06-25T19:40:35.441Z,14.13
2023-06-25T19:43:03.991Z,13.43
2023-06-25T19:45:31.531Z,14.48
2023-06-25T19:48:00.932Z,12.13
2023-06-25T19:50:28.759Z,13.15
2023-06-25T19:52:55.876Z,13.98
2023-06-25T19:55:23.497Z,11.95
2023-06-25T19:57:50.316Z,13.52
2023-06-25T20:00:26.348Z,12.18
2023-06-25T20:02:53.134Z,14.05
2023-06-25T20:05:20.525Z,13.23
2023-06-25T20:07:49.709Z,13.23
2023-06-25T20:10:19.287Z,14.18
2023-06-25T20:12:50.732Z,15.98
2023-06-25T20:15:18.795Z,14.88
2023-06-25T20:17:46.303Z,15.07
2023-06-25T20:20:13.436Z,11.90
2023-06-25T20:22:40.576Z,17.17
2023-06-25T20:25:07.528Z,13.40
2023-06-25T20:27:35.273Z,12.60
2023-06-25T20:30:07.949Z,16.05
2023-06-25T20:32:35.183Z,16.77
2023-06-25T20:35:02.399Z,14.05
2023-06-25T20:37:29.338Z,13.57
2023-06-25T20:39:58.294Z,13.65
2023-06-25T20:42:25.802Z,17.00
2023-06-25T20:44:53.821Z,15.95
2023-06-25T20:47:20.679Z,16.05
2023-06-25T20:49:47.491Z,19.52
2023-06-25T20:52:14.841Z,19.52
2023-06-25T20:54:41.716Z,17.35
2023-06-25T20:57:09.344Z,18.95
2023-06-25T20:59:36.306Z,19.73
2023-06-25T21:02:04.042Z,15.20
2023-06-25T21:04:31.194Z,17.00
2023-06-25T21:06:57.934Z,21.95
2023-06-25T21:09:26.621Z,14.50
2023-06-25T21:11:53.350Z,16.73
2023-06-25T21:14:21.142Z,19.00
2023-06-25T21:16:49.947Z,16.17
2023-06-25T21:19:20.420Z,16.88
2023-06-25T21:21:47.515Z,14.15
2023-06-25T21:24:16.545Z,14.50
2023-06-25T21:26:43.635Z,14.55
2023-06-25T21:29:10.446Z,18.95
2023-06-25T21:31:37.869Z,15.70
2023-06-25T21:34:04.857Z,15.75
2023-06-25T21:36:34.272Z,15.70
2023-06-25T21:39:04.971Z,12.98
2023-06-25T21:41:32.265Z,14.95
2023-06-25T21:43:59.657Z,15.07
2023-06-25T21:46:26.930Z,13.80
2023-06-25T21:48:53.660Z,13.02
2023-06-25T21:51:20.503Z,12.90
2023-06-25T21:53:47.487Z,13.90
2023-06-25T21:56:15.459Z,15.48
2023-06-25T21:58:42.947Z,12.48
2023-06-25T22:01:09.747Z,15.45
2023-06-25T22:03:37.166Z,14.43
2023-06-25T22:06:03.859Z,13.93
2023-06-25T22:08:33.332Z,15.30
2023-06-25T22:11:00.682Z,14.75
2023-06-25T22:13:28.570Z,13.15
2023-06-25T22:15:56.914Z,13.90
2023-06-25T22:18:23.961Z,12.35
2023-06-25T22:20:51.368Z,12.18
2023-06-25T22:23:18.408Z,14.57
2023-06-25T22:25:45.660Z,12.23
2023-06-25T22:28:14.453Z,13.98
2023-06-25T22:30:41.785Z,14.27
2023-06-25T22:33:09.065Z,12.38
2023-06-25T22:36:15.425Z,17.58
2023-06-25T22:39:09.756Z,13.68
2023-06-25T22:41:37.576Z,14.73
2023-06-25T22:44:04.947Z,12.75
2023-06-25T22:46:31.879Z,14.77
2023-06-25T22:49:00.947Z,15.13
2023-06-25T22:51:31.089Z,21.13
2023-06-25T22:53:58.595Z,14.55
2023-06-25T22:56:26.626Z,14.45
2023-06-25T22:58:53.960Z,15.45
2023-06-25T23:01:24.173Z,15.57
2023-06-25T23:03:52.096Z,15.18
2023-06-25T23:06:20.036Z,14.27
2023-06-25T23:08:48.893Z,14.98
2023-06-25T23:11:17.114Z,16.70
2023-06-25T23:13:44.308Z,21.63
2023-06-25T23:16:13.245Z,14.82
2023-06-25T23:18:41.313Z,19.55
2023-06-25T23:21:13.183Z,16.95
2023-06-25T23:23:40.488Z,15.23
2023-06-25T23:26:09.582Z,16.15
2023-06-25T23:28:36.674Z,15.38
2023-06-25T23:31:04.774Z,16.20
2023-06-25T23:33:37.008Z,17.63
2023-06-25T23:36:04.280Z,26.58
2023-06-25T23:38:31.746Z,17.52
2023-06-25T23:40:58.582Z,16.17
2023-06-25T23:43:26.830Z,16.58
2023-06-25T23:45:54.137Z,17.90
2023-06-25T23:48:21.737Z,23.98
2023-06-25T23:50:49.550Z,17.95
2023-06-25T23:53:18.772Z,16.73
2023-06-25T23:55:45.624Z,18.42
2023-06-25T23:58:13.205Z,18.80
